Time;durP1;ratioP1;P1;durP2;ratioP2;P2;SDS_P1;SDS_P2;PMS_P1;PMS_P2;Temp;Humidity;BMP_temperature;BMP_pressure;BME280_temperature;BME280_humidity;BME280_pressure;Samples;Min_cycle;Max_cycle;Signal;HPM_P1;HPM_P2
2023/10/02 00:01:53;;;;;;;18.13;9.55;;;14.20;99.90;;;;;;4974793;28;20622;-63
2023/10/02 00:04:20;;;;;;;16.02;9.50;;;14.20;99.90;;;;;;4974541;28;20630;-63
2023/10/02 00:06:47;;;;;;;17.50;9.80;;;14.20;99.90;;;;;;4974575;28;20650;-63
2023/10/02 00:09:20;;;;;;;13.70;8.95;;;14.00;99.90;;;;;;4974454;28;20650;-63
2023/10/02 00:11:47;;;;;;;17.55;9.82;;;14.00;99.90;;;;;;4974403;28;20168;-63
2023/10/02 00:14:23;;;;;;;16.90;8.43;;;14.00;99.90;;;;;;4974401;28;20173;-63
2023/10/02 00:16:59;;;;;;;14.82;8.55;;;14.00;99.90;;;;;;4974509;28;20300;-63
2023/10/02 00:19:29;;;;;;;14.38;9.05;;;14.10;99.90;;;;;;4974207;28;20204;-63
2023/10/02 00:22:06;;;;;;;13.18;8.27;;;14.00;99.90;;;;;;4957017;28;20174;-63
2023/10/02 00:24:41;;;;;;;13.15;8.35;;;14.00;99.90;;;;;;4949453;28;20188;-64
2023/10/02 00:27:09;;;;;;;16.90;8.30;;;14.00;99.90;;;;;;4974587;28;20522;-63
2023/10/02 00:29:50;;;;;;;19.73;9.85;;;14.00;99.90;;;;;;4974191;28;20185;-63
2023/10/02 00:32:16;;;;;;;22.50;8.43;;;13.90;99.90;;;;;;4974219;28;20167;-63
2023/10/02 00:34:41;;;;;;;17.10;8.38;;;13.90;99.90;;;;;;4974163;28;20177;-63
2023/10/02 00:37:12;;;;;;;16.98;8.68;;;13.80;99.90;;;;;;4974222;28;20173;-63
2023/10/02 00:39:39;;;;;;;14.57;7.90;;;13.90;99.90;;;;;;4973784;28;20193;-63
2023/10/02 00:42:24;;;;;;;14.57;8.52;;;13.90;99.90;;;;;;4976032;28;20184;-63
2023/10/02 00:45:03;;;;;;;12.85;8.35;;;13.90;99.90;;;;;;4977853;28;20157;-63
2023/10/02 00:47:41;;;;;;;15.27;8.35;;;13.90;99.90;;;;;;4970030;28;20247;-63
2023/10/02 00:50:07;;;;;;;15.70;8.25;;;13.80;99.90;;;;;;4977862;28;20192;-63
2023/10/02 00:52:33;;;;;;;14.55;7.60;;;13.80;99.90;;;;;;4977570;28;20199;-63
2023/10/02 00:55:05;;;;;;;17.60;8.40;;;13.90;99.90;;;;;;4977271;28;20613;-63
2023/10/02 00:57:35;;;;;;;15.20;8.48;;;13.90;99.90;;;;;;4977630;28;20574;-63
2023/10/02 01:00:18;;;;;;;15.32;7.88;;;13.80;99.90;;;;;;4976127;28;20307;-63
2023/10/02 01:02:46;;;;;;;12.60;7.55;;;13.80;99.90;;;;;;4977675;28;20587;-63
2023/10/02 01:05:17;;;;;;;17.13;8.65;;;13.80;99.90;;;;;;4977384;28;20544;-63
2023/10/02 01:07:47;;;;;;;17.33;9.38;;;13.80;99.90;;;;;;4960103;28;20615;-63
2023/10/02 01:10:23;;;;;;;13.90;8.40;;;13.90;99.90;;;;;;4976959;28;20248;-63
2023/10/02 01:13:01;;;;;;;16.40;8.88;;;13.90;99.90;;;;;;4977230;28;20169;-63
2023/10/02 01:15:28;;;;;;;15.00;9.43;;;13.90;99.90;;;;;;4977478;28;20181;-62
2023/10/02 01:18:41;;;;;;;16.48;8.82;;;13.80;99.90;;;;;;4977021;28;20181;-62
2023/10/02 01:20:53;;;;;;;14.90;8.85;;;13.70;99.90;;;;;;4966580;28;20217;-62
2023/10/02 01:23:25;;;;;;;15.95;9.45;;;13.70;99.90;;;;;;4977360;28;20622;-62
2023/10/02 01:25:57;;;;;;;16.20;8.82;;;13.60;99.90;;;;;;4975541;28;20216;-62
2023/10/02 01:28:29;;;;;;;16.30;9.88;;;13.60;99.90;;;;;;4977020;28;20252;-62
2023/10/02 01:30:55;;;;;;;14.50;8.15;;;13.50;99.90;;;;;;4959509;28;20209;-62
2023/10/02 01:33:26;;;;;;;14.63;8.32;;;13.40;99.90;;;;;;4976922;28;20182;-62
2023/10/02 01:35:56;;;;;;;14.93;8.20;;;13.40;99.90;;;;;;4977314;28;20157;-62
2023/10/02 01:38:29;;;;;;;15.77;9.00;;;13.40;99.90;;;;;;4977419;28;20526;-62
2023/10/02 01:41:04;;;;;;;14.77;8.40;;;13.40;99.90;;;;;;4976461;28;20332;-62
2023/10/02 01:43:39;;;;;;;15.57;8.40;;;13.30;99.90;;;;;;4976706;28;20149;-62
2023/10/02 01:46:09;;;;;;;16.98;8.90;;;13.30;99.90;;;;;;4976532;28;20157;-62
2023/10/02 01:48:44;;;;;;;15.52;8.30;;;13.40;99.90;;;;;;4960297;28;20516;-62
2023/10/02 01:51:25;;;;;;;16.20;9.00;;;13.40;99.90;;;;;;4977066;28;20205;-62
2023/10/02 01:53:56;;;;;;;18.30;9.13;;;13.40;99.90;;;;;;4976203;28;20161;-62
2023/10/02 01:56:25;;;;;;;13.65;8.57;;;13.20;99.90;;;;;;4975034;28;20181;-62
2023/10/02 01:58:53;;;;;;;14.70;8.40;;;13.20;99.90;;;;;;4959056;28;20204;-62
2023/10/02 02:01:22;;;;;;;16.92;8.10;;;13.20;99.90;;;;;;4976253;28;20196;-62
2023/10/02 02:03:51;;;;;;;15.73;8.85;;;13.30;99.90;;;;;;4976573;28;20627;-62
2023/10/02 02:06:21;;;;;;;15.68;7.90;;;13.30;99.90;;;;;;4975044;28;20276;-62
2023/10/02 02:08:58;;;;;;;16.88;8.00;;;13.30;99.90;;;;;;4958713;28;20173;-62
2023/10/02 02:11:28;;;;;;;18.45;8.77;;;13.20;99.90;;;;;;4975912;28;20188;-62
2023/10/02 02:13:58;;;;;;;19.00;9.15;;;13.20;99.90;;;;;;4958774;28;20178;-62
2023/10/02 02:16:31;;;;;;;16.13;8.85;;;13.20;99.90;;;;;;4976064;28;20184;-62
2023/10/02 02:18:58;;;;;;;16.98;9.18;;;13.10;99.90;;;;;;4976285;28;20186;-62
2023/10/02 02:21:24;;;;;;;14.57;8.80;;;13.10;99.90;;;;;;4975847;28;20204;-62
2023/10/02 02:24:03;;;;;;;18.17;9.18;;;13.20;99.90;;;;;;4975920;28;20177;-62
2023/10/02 02:26:37;;;;;;;13.82;7.97;;;13.10;99.90;;;;;;4975678;28;20189;-62
2023/10/02 02:29:04;;;;;;;15.70;8.63;;;13.00;99.90;;;;;;4976685;28;20160;-62
2023/10/02 02:31:31;;;;;;;13.38;7.82;;;13.00;99.90;;;;;;4975612;28;20197;-62
2023/10/02 02:34:08;;;;;;;13.82;8.43;;;13.00;99.90;;;;;;4975744;28;20665;-62
2023/10/02 02:36:35;;;;;;;13.88;8.55;;;13.00;99.90;;;;;;4976499;28;20161;-62
2023/10/02 02:39:16;;;;;;;17.17;9.65;;;13.00;99.90;;;;;;4975729;28;20200;-62
2023/10/02 02:41:42;;;;;;;17.27;9.48;;;13.00;99.90;;;;;;4969989;28;20201;-62
2023/10/02 02:44:29;;;;;;;19.13;9.48;;;13.00;99.90;;;;;;4975633;28;20537;-62
2023/10/02 02:46:56;;;;;;;16.17;8.75;;;13.00;99.90;;;;;;4975412;28;20280;-62
2023/10/02 02:49:29;;;;;;;14.98;8.55;;;12.80;99.90;;;;;;4975487;28;20177;-62
2023/10/02 02:51:58;;;;;;;16.40;8.32;;;12.90;99.90;;;;;;4976012;28;20162;-62
2023/10/02 02:54:25;;;;;;;14.95;8.35;;;12.90;99.90;;;;;;4975344;28;20173;-62
2023/10/02 02:56:58;;;;;;;16.63;9.30;;;12.90;99.90;;;;;;4975659;28;20237;-62
2023/10/02 02:59:28;;;;;;;16.02;9.38;;;12.80;99.90;;;;;;4975642;28;20223;-62
2023/10/02 03:02:20;;;;;;;14.40;8.32;;;12.70;99.90;;;;;;4975558;28;20201;-62
2023/10/02 03:04:47;;;;;;;12.95;7.63;;;12.60;99.90;;;;;;4974553;28;20158;-62
2023/10/02 03:07:36;;;;;;;15.68;8.82;;;12.60;99.90;;;;;;4975159;28;20532;-62
2023/10/02 03:10:02;;;;;;;17.92;9.00;;;12.60;99.90;;;;;;4974860;28;20193;-63
2023/10/02 03:12:30;;;;;;;14.20;8.48;;;12.70;99.90;;;;;;4975404;28;20162;-63
2023/10/02 03:14:58;;;;;;;16.02;8.85;;;12.70;99.90;;;;;;4975001;28;20181;-63
2023/10/02 03:17:30;;;;;;;14.18;9.15;;;12.70;99.90;;;;;;4975538;28;20189;-63
2023/10/02 03:20:00;;;;;;;14.00;9.23;;;12.70;99.90;;;;;;4975132;28;20236;-63
2023/10/02 03:22:27;;;;;;;16.10;9.05;;;12.70;99.90;;;;;;4975128;28;20177;-63
2023/10/02 03:25:24;;;;;;;17.42;9.35;;;12.70;99.90;;;;;;4957211;28;20193;-63
2023/10/02 03:27:44;;;;;;;14.95;8.18;;;12.70;99.90;;;;;;4974675;28;20185;-63
2023/10/02 03:30:35;;;;;;;12.00;7.53;;;12.70;99.90;;;;;;4974717;28;20197;-63
2023/10/02 03:32:56;;;;;;;13.40;8.77;;;12.70;99.90;;;;;;4974658;28;20284;-63
2023/10/02 03:35:22;;;;;;;14.80;8.48;;;12.70;99.90;;;;;;4974976;28;20220;-63
2023/10/02 03:37:51;;;;;;;13.65;7.68;;;12.70;99.90;;;;;;4974662;28;20628;-63
2023/10/02 03:40:20;;;;;;;13.65;8.30;;;12.70;99.90;;;;;;4974300;28;20301;-63
2023/10/02 03:42:48;;;;;;;14.77;8.55;;;12.80;99.90;;;;;;4974667;28;20205;-63
2023/10/02 03:45:13;;;;;;;14.63;8.13;;;12.70;99.90;;;;;;4957275;28;20177;-63
2023/10/02 03:47:41;;;;;;;13.98;7.68;;;12.70;99.90;;;;;;4974492;28;20597;-63
2023/10/02 03:50:12;;;;;;;16.95;8.80;;;12.60;99.90;;;;;;4974397;28;20280;-63
2023/10/02 03:52:41;;;;;;;13.57;8.45;;;12.60;99.90;;;;;;4957230;28;20325;-63
2023/10/02 03:55:17;;;;;;;15.55;7.95;;;12.50;99.90;;;;;;4974291;28;20173;-63
2023/10/02 04:00:18;;;;;;;16.08;8.65;;;12.50;99.90;;;;;;4974696;28;20347;-63
2023/10/02 04:02:52;;;;;;;12.57;8.07;;;12.50;99.90;;;;;;4974629;28;20173;-62
2023/10/02 04:10:56;;;;;;;13.32;7.80;;;12.50;99.90;;;;;;4974178;28;20570;-62
2023/10/02 04:13:25;;;;;;;15.30;8.13;;;12.50;99.90;;;;;;4974739;28;20157;-62
2023/10/02 04:16:28;;;;;;;12.73;7.60;;;12.50;99.90;;;;;;4974366;28;20220;-62
2023/10/02 04:18:47;;;;;;;17.98;8.88;;;12.50;99.90;;;;;;4977992;28;20219;-62
2023/10/02 04:21:22;;;;;;;15.40;8.23;;;12.50;99.90;;;;;;4978163;28;20185;-62
2023/10/02 04:23:58;;;;;;;18.02;8.65;;;12.50;99.90;;;;;;4978961;28;20561;-62
2023/10/02 04:26:28;;;;;;;13.43;7.47;;;12.50;99.90;;;;;;4977897;28;20236;-62
2023/10/02 04:28:58;;;;;;;13.82;7.45;;;12.50;99.90;;;;;;4978073;28;20173;-62
2023/10/02 04:31:28;;;;;;;13.32;7.80;;;12.50;99.90;;;;;;4978047;28;20224;-62
2023/10/02 04:36:43;;;;;;;11.77;8.32;;;12.50;99.90;;;;;;4978202;28;20172;-62
2023/10/02 04:42:15;;;;;;;19.75;8.38;;;12.50;99.90;;;;;;4977945;28;20173;-62
2023/10/02 04:44:48;;;;;;;15.82;8.38;;;12.40;99.90;;;;;;4978379;28;20189;-62
2023/10/02 04:47:19;;;;;;;14.75;7.70;;;12.30;99.90;;;;;;4978020;28;20255;-62
2023/10/02 04:55:24;;;;;;;15.30;8.65;;;12.20;99.90;;;;;;4978115;28;20173;-62
2023/10/02 04:57:54;;;;;;;17.02;8.95;;;12.30;99.90;;;;;;4978243;28;20164;-62
2023/10/02 05:00:32;;;;;;;14.27;8.20;;;12.30;99.90;;;;;;4977675;28;20208;-62
2023/10/02 05:03:17;;;;;;;12.05;7.72;;;12.20;99.90;;;;;;4977680;28;20165;-62
2023/10/02 05:05:51;;;;;;;13.90;9.18;;;12.20;99.90;;;;;;4972065;28;20165;-62
2023/10/02 05:11:26;;;;;;;14.50;8.50;;;12.30;99.90;;;;;;4974656;28;20559;-62
2023/10/02 05:13:59;;;;;;;15.15;8.98;;;12.30;99.90;;;;;;4977611;28;20150;-62
2023/10/02 05:16:45;;;;;;;14.70;8.35;;;12.30;99.90;;;;;;4959875;28;20161;-62
2023/10/02 05:19:14;;;;;;;16.73;9.05;;;12.20;99.90;;;;;;4977186;28;20197;-62
2023/10/02 05:21:50;;;;;;;12.48;8.15;;;12.20;99.90;;;;;;4977085;28;20670;-62
2023/10/02 05:24:18;;;;;;;13.80;8.82;;;12.20;99.90;;;;;;4977312;28;20169;-62
2023/10/02 05:26:44;;;;;;;13.95;7.85;;;12.20;99.90;;;;;;4976754;28;20191;-62
2023/10/02 05:29:14;;;;;;;22.08;11.45;;;12.20;99.90;;;;;;4976101;28;20646;-62
2023/10/02 05:31:43;;;;;;;19.83;10.60;;;12.20;99.90;;;;;;4976860;28;20586;-62
2023/10/02 05:34:26;;;;;;;21.63;11.82;;;12.20;99.90;;;;;;4976887;28;20185;-62
2023/10/02 05:37:11;;;;;;;26.02;12.65;;;12.20;99.90;;;;;;4976879;28;20158;-62
2023/10/02 05:39:40;;;;;;;27.33;13.45;;;12.20;99.90;;;;;;4976903;28;20280;-62
2023/10/02 05:42:15;;;;;;;28.35;11.82;;;12.10;99.90;;;;;;4959166;28;20177;-62
2023/10/02 05:44:45;;;;;;;18.55;10.10;;;12.10;99.90;;;;;;4976590;28;20169;-62
2023/10/02 05:47:18;;;;;;;22.75;13.98;;;12.10;99.90;;;;;;4959233;28;20185;-62
2023/10/02 05:49:47;;;;;;;18.77;11.32;;;12.10;99.90;;;;;;4976783;28;20662;-62
2023/10/02 05:52:14;;;;;;;17.60;10.85;;;12.10;99.90;;;;;;4976553;28;20639;-62
2023/10/02 05:54:47;;;;;;;16.35;9.00;;;12.10;99.90;;;;;;4976543;28;20689;-62
2023/10/02 05:57:14;;;;;;;15.93;9.20;;;12.10;99.90;;;;;;4976257;28;20249;-62
2023/10/02 05:59:57;;;;;;;16.67;9.07;;;12.10;99.90;;;;;;4976291;28;20193;-62
2023/10/02 06:02:24;;;;;;;18.40;9.10;;;12.20;99.90;;;;;;4976606;28;20158;-62
2023/10/02 06:04:54;;;;;;;15.90;9.35;;;12.20;99.90;;;;;;4976321;28;20183;-62
2023/10/02 06:07:41;;;;;;;20.33;9.80;;;12.20;99.90;;;;;;4958924;28;20182;-62
2023/10/02 06:10:25;;;;;;;16.02;8.93;;;12.30;99.90;;;;;;4975857;28;20197;-62
2023/10/02 06:13:08;;;;;;;18.58;8.75;;;12.30;99.90;;;;;;4958853;28;20228;-62
2023/10/02 06:15:48;;;;;;;16.67;8.77;;;12.30;99.90;;;;;;4976143;28;20165;-62
2023/10/02 06:18:27;;;;;;;18.45;9.73;;;12.30;99.90;;;;;;4976216;28;20672;-62
2023/10/02 06:21:00;;;;;;;14.38;9.00;;;12.30;99.90;;;;;;4975931;28;20670;-62
2023/10/02 06:23:37;;;;;;;15.10;9.27;;;12.40;99.90;;;;;;4976220;28;20162;-62
2023/10/02 06:26:09;;;;;;;14.70;8.50;;;12.50;99.90;;;;;;4975750;28;20184;-62
2023/10/02 06:28:35;;;;;;;17.90;8.82;;;12.50;99.90;;;;;;4958572;28;20169;-62
2023/10/02 06:31:02;;;;;;;13.30;8.35;;;12.60;99.90;;;;;;4958418;28;20573;-62
2023/10/02 06:33:28;;;;;;;16.15;8.95;;;12.60;99.90;;;;;;4975801;28;20260;-62
2023/10/02 06:35:57;;;;;;;13.23;8.10;;;12.70;99.90;;;;;;4975736;28;20651;-62
2023/10/02 06:38:29;;;;;;;13.43;8.43;;;12.70;99.90;;;;;;4975530;28;20181;-62
2023/10/02 06:40:56;;;;;;;16.60;8.55;;;12.80;99.90;;;;;;4975252;28;20201;-62
2023/10/02 06:43:29;;;;;;;16.58;9.60;;;12.90;99.90;;;;;;4975555;28;20700;-62
2023/10/02 06:46:16;;;;;;;16.05;8.70;;;13.00;99.90;;;;;;4975899;28;20200;-62
2023/10/02 06:48:46;;;;;;;13.98;8.57;;;13.10;99.90;;;;;;4975610;28;20158;-62
2023/10/02 06:51:16;;;;;;;18.85;9.10;;;13.20;99.90;;;;;;4975616;28;20200;-62
2023/10/02 06:53:42;;;;;;;12.13;8.27;;;13.20;99.90;;;;;;4958010;28;20236;-62
2023/10/02 06:56:12;;;;;;;13.85;8.93;;;13.30;99.90;;;;;;4975088;28;20634;-62
2023/10/02 06:58:56;;;;;;;12.68;7.88;;;13.40;99.90;;;;;;4975418;28;20193;-62
2023/10/02 07:01:27;;;;;;;16.45;8.27;;;13.60;99.90;;;;;;4975778;28;20275;-62
2023/10/02 07:03:56;;;;;;;15.13;9.30;;;13.70;99.90;;;;;;4975386;28;20166;-62
2023/10/02 07:06:26;;;;;;;19.60;10.45;;;13.80;99.90;;;;;;4975143;28;20184;-62
2023/10/02 07:09:11;;;;;;;18.80;9.85;;;13.90;99.90;;;;;;4975459;28;20189;-62
2023/10/02 07:11:39;;;;;;;17.45;9.50;;;14.00;99.90;;;;;;4974833;28;20201;-62
2023/10/02 07:14:06;;;;;;;18.63;9.63;;;14.10;99.90;;;;;;4975064;28;20177;-62
2023/10/02 07:16:32;;;;;;;15.98;9.45;;;14.30;99.90;;;;;;4974980;28;20183;-62
2023/10/02 07:18:59;;;;;;;14.05;8.20;;;14.40;99.90;;;;;;4974887;28;20197;-62
2023/10/02 07:21:30;;;;;;;18.65;10.43;;;14.50;99.90;;;;;;4974690;28;20224;-62
2023/10/02 07:24:02;;;;;;;18.05;11.02;;;14.70;99.90;;;;;;4975170;28;20158;-62
2023/10/02 07:26:51;;;;;;;18.90;10.63;;;14.80;99.90;;;;;;4957295;28;20192;-62
2023/10/02 07:29:19;;;;;;;18.77;10.45;;;14.90;99.90;;;;;;4974949;28;20176;-62
2023/10/02 07:31:46;;;;;;;19.05;10.40;;;15.00;99.90;;;;;;4974771;28;20197;-62
2023/10/02 07:34:13;;;;;;;19.05;11.18;;;15.10;99.90;;;;;;4957404;28;20209;-62
2023/10/02 07:36:44;;;;;;;17.65;9.88;;;15.20;99.90;;;;;;4975048;28;20642;-62
2023/10/02 07:42:01;;;;;;;18.50;10.65;;;15.40;99.90;;;;;;4974755;28;20220;-62
2023/10/02 07:44:39;;;;;;;15.25;9.25;;;15.60;99.90;;;;;;4974652;28;20178;-63
2023/10/02 07:47:27;;;;;;;19.33;10.50;;;15.80;99.90;;;;;;4957211;28;20195;-62
2023/10/02 07:49:54;;;;;;;17.95;10.80;;;16.00;99.90;;;;;;4974193;28;20296;-63
2023/10/02 07:52:38;;;;;;;17.60;9.77;;;16.20;99.90;;;;;;4974422;28;20184;-63
2023/10/02 07:55:10;;;;;;;17.83;9.50;;;16.50;99.90;;;;;;4974562;28;20244;-63
2023/10/02 07:57:36;;;;;;;16.58;9.10;;;16.70;99.90;;;;;;4974395;28;20166;-63
2023/10/02 08:00:33;;;;;;;16.27;9.65;;;16.80;99.90;;;;;;4974588;28;20235;-62
2023/10/02 08:02:52;;;;;;;19.20;9.95;;;16.90;99.90;;;;;;4974480;28;20185;-63
2023/10/02 08:05:21;;;;;;;17.60;9.52;;;17.10;99.90;;;;;;4974953;28;20180;-63
2023/10/02 08:08:08;;;;;;;18.67;10.60;;;17.20;99.90;;;;;;4974536;28;20169;-63
2023/10/02 08:10:49;;;;;;;17.05;9.80;;;17.30;99.90;;;;;;4974169;28;20197;-63
2023/10/02 08:13:33;;;;;;;17.10;9.93;;;17.60;99.90;;;;;;4974915;28;20559;-63
2023/10/02 08:16:15;;;;;;;20.90;10.50;;;17.80;99.90;;;;;;4973724;28;20736;-65
2023/10/02 08:19:05;;;;;;;20.00;10.57;;;17.80;99.90;;;;;;4955113;29;20248;-64
2023/10/02 08:21:35;;;;;;;15.18;9.57;;;17.90;99.90;;;;;;4955068;28;20693;-64
2023/10/02 08:24:05;;;;;;;17.90;9.77;;;18.10;99.90;;;;;;4955347;29;20178;-64
2023/10/02 08:26:40;;;;;;;17.90;9.30;;;18.20;99.90;;;;;;4947754;29;20194;-64
2023/10/02 08:29:14;;;;;;;16.65;9.32;;;18.30;99.90;;;;;;4955304;29;20240;-64
2023/10/02 08:31:49;;;;;;;18.40;9.50;;;18.40;99.90;;;;;;4954832;28;20200;-64
2023/10/02 08:34:19;;;;;;;19.52;9.75;;;18.60;99.90;;;;;;4955028;29;20650;-63
2023/10/02 08:37:04;;;;;;;22.65;10.48;;;18.90;99.90;;;;;;4953678;29;20181;-63
2023/10/02 08:39:35;;;;;;;18.60;10.20;;;19.00;99.90;;;;;;4954991;28;20251;-63
2023/10/02 08:42:11;;;;;;;17.88;10.23;;;19.30;99.90;;;;;;4954818;29;20232;-63
2023/10/02 08:44:41;;;;;;;18.45;9.95;;;19.70;99.90;;;;;;4953838;29;20689;-63
2023/10/02 08:47:11;;;;;;;18.65;10.13;;;20.00;99.90;;;;;;4963134;28;20201;-64
2023/10/02 08:49:38;;;;;;;19.65;9.85;;;20.10;99.90;;;;;;4972896;28;20552;-62
2023/10/02 08:52:13;;;;;;;19.52;10.15;;;20.10;99.90;;;;;;4974739;28;20268;-62
2023/10/02 08:54:40;;;;;;;18.70;10.07;;;20.20;99.90;;;;;;4974262;28;20219;-63
2023/10/02 08:57:12;;;;;;;17.98;10.10;;;20.30;99.90;;;;;;4973870;28;20185;-63
2023/10/02 08:59:38;;;;;;;19.83;10.27;;;20.30;99.90;;;;;;4973862;28;20213;-63
2023/10/02 09:02:17;;;;;;;19.15;10.15;;;20.50;99.90;;;;;;4974426;28;20170;-64
2023/10/02 09:04:57;;;;;;;17.60;9.63;;;20.50;99.90;;;;;;4976326;28;20177;-64
2023/10/02 09:07:24;;;;;;;21.42;10.80;;;20.60;99.90;;;;;;4977719;28;20149;-64
2023/10/02 09:10:12;;;;;;;19.27;9.48;;;20.60;99.90;;;;;;4977733;28;20701;-64
2023/10/02 09:12:48;;;;;;;18.40;10.25;;;20.70;99.90;;;;;;4977117;28;20162;-63
2023/10/02 09:15:29;;;;;;;18.00;10.05;;;20.70;99.90;;;;;;4976398;28;20550;-63
2023/10/02 09:17:57;;;;;;;20.73;10.25;;;20.80;99.90;;;;;;4977790;28;20540;-64
2023/10/02 09:20:39;;;;;;;18.83;10.10;;;21.00;99.90;;;;;;4977286;28;20209;-64
2023/10/02 09:23:09;;;;;;;17.77;9.60;;;21.00;99.90;;;;;;4977320;28;20160;-64
2023/10/02 09:25:40;;;;;;;23.88;11.65;;;21.00;99.90;;;;;;4976854;28;20185;-64
2023/10/02 09:28:13;;;;;;;20.60;10.32;;;21.00;99.90;;;;;;4977132;28;20165;-64
2023/10/02 09:30:41;;;;;;;18.13;9.63;;;21.00;99.90;;;;;;4975657;28;20204;-64
2023/10/02 09:33:25;;;;;;;16.85;9.80;;;21.10;99.90;;;;;;4959542;28;20185;-64
2023/10/02 09:35:54;;;;;;;21.33;10.95;;;21.10;99.90;;;;;;4977504;28;20160;-64
2023/10/02 09:38:24;;;;;;;22.92;11.05;;;21.20;99.90;;;;;;4975801;28;20178;-64
2023/10/02 09:43:33;;;;;;;19.67;10.48;;;21.30;99.90;;;;;;4976838;28;20158;-64
2023/10/02 09:46:03;;;;;;;19.08;9.93;;;21.40;99.90;;;;;;4976943;28;20177;-64
2023/10/02 09:51:30;;;;;;;18.33;9.90;;;21.60;99.90;;;;;;4976673;28;20206;-64
2023/10/02 09:54:05;;;;;;;20.55;10.50;;;21.70;99.90;;;;;;4975396;28;20185;-65
2023/10/02 09:57:06;;;;;;;19.60;10.40;;;21.80;99.90;;;;;;4976330;28;20176;-62
2023/10/02 09:59:46;;;;;;;18.23;10.02;;;21.90;99.90;;;;;;4977061;28;20196;-63
2023/10/02 10:02:56;;;;;;;20.35;10.48;;;22.00;99.90;;;;;;4975355;28;20173;-62
2023/10/02 10:10:49;;;;;;;19.50;10.52;;;22.30;99.90;;;;;;4976296;28;20220;-62
2023/10/02 10:13:31;;;;;;;23.75;10.95;;;22.40;99.90;;;;;;4976883;28;20164;-62
2023/10/02 10:16:18;;;;;;;20.70;11.20;;;22.40;99.90;;;;;;4974587;28;20562;-62
2023/10/02 10:21:58;;;;;;;22.95;10.75;;;22.60;99.90;;;;;;4975994;28;20255;-62
2023/10/02 10:24:56;;;;;;;23.95;11.52;;;22.70;99.90;;;;;;4976323;28;20184;-64
2023/10/02 10:27:54;;;;;;;18.85;11.05;;;22.80;99.90;;;;;;4975952;28;20205;-63
2023/10/02 10:33:20;;;;;;;21.25;10.77;;;23.00;99.90;;;;;;4963119;28;20192;-62
2023/10/02 10:35:57;;;;;;;21.35;11.10;;;23.10;99.90;;;;;;4976151;28;20171;-62
2023/10/02 10:38:26;;;;;;;24.17;11.80;;;23.20;99.90;;;;;;4976496;28;20176;-62
2023/10/02 10:41:02;;;;;;;22.05;11.63;;;23.20;99.90;;;;;;4974461;28;20197;-62
2023/10/02 10:43:43;;;;;;;20.15;11.23;;;23.30;99.90;;;;;;4976286;28;20173;-62
2023/10/02 10:46:29;;;;;;;22.95;11.70;;;23.40;99.90;;;;;;4976017;28;20653;-62
2023/10/02 10:49:08;;;;;;;20.63;10.77;;;23.50;99.90;;;;;;4975818;28;20551;-62
2023/10/02 10:51:38;;;;;;;20.40;10.90;;;23.60;99.90;;;;;;4975871;28;20698;-62
2023/10/02 10:54:19;;;;;;;21.15;11.82;;;23.70;99.90;;;;;;4975563;28;20208;-62
2023/10/02 10:56:56;;;;;;;23.02;11.63;;;23.80;99.90;;;;;;4975146;28;20195;-62
2023/10/02 10:59:25;;;;;;;21.17;10.52;;;24.00;99.90;;;;;;4975557;28;20283;-62
2023/10/02 11:02:09;;;;;;;21.05;11.38;;;24.20;99.90;;;;;;4957992;28;20193;-63
2023/10/02 11:04:51;;;;;;;21.58;10.85;;;24.40;99.90;;;;;;4975336;28;20161;-63
2023/10/02 11:07:25;;;;;;;22.65;11.45;;;24.60;99.90;;;;;;4975773;28;20154;-63
2023/10/02 11:10:19;;;;;;;22.25;10.93;;;24.60;99.90;;;;;;4975397;28;20292;-63
2023/10/02 11:13:01;;;;;;;19.50;10.70;;;24.60;99.90;;;;;;4974917;28;20161;-63
2023/10/02 11:15:57;;;;;;;20.95;10.20;;;24.60;99.90;;;;;;4975661;28;20161;-63
2023/10/02 11:18:26;;;;;;;20.58;10.95;;;24.60;99.90;;;;;;4974937;28;20692;-63
2023/10/02 11:21:00;;;;;;;23.27;10.95;;;24.80;99.90;;;;;;4957543;28;20215;-63
2023/10/02 11:23:45;;;;;;;20.08;11.05;;;24.80;99.90;;;;;;4975483;28;20228;-63
2023/10/02 11:26:13;;;;;;;18.48;9.95;;;24.80;99.90;;;;;;4973860;28;20189;-63
2023/10/02 11:28:41;;;;;;;19.85;10.15;;;24.90;99.90;;;;;;4974831;28;20173;-63
2023/10/02 11:31:30;;;;;;;16.70;9.60;;;25.00;99.90;;;;;;4974833;28;20188;-63
2023/10/02 11:34:01;;;;;;;17.58;9.90;;;25.00;99.90;;;;;;4975450;28;20161;-63
2023/10/02 11:36:33;;;;;;;17.90;9.63;;;25.00;99.90;;;;;;4975118;28;20227;-63
2023/10/02 11:39:16;;;;;;;17.25;9.05;;;25.10;99.90;;;;;;4974962;28;20547;-63
2023/10/02 11:41:46;;;;;;;15.70;8.95;;;25.30;99.90;;;;;;4973157;28;20228;-63
2023/10/02 11:44:14;;;;;;;18.05;9.02;;;25.40;99.90;;;;;;4957387;28;20168;-63
2023/10/02 11:46:41;;;;;;;18.42;9.15;;;25.50;99.90;;;;;;4970018;28;20182;-63
2023/10/02 11:49:08;;;;;;;18.00;10.15;;;25.50;99.90;;;;;;4988690;28;20180;-63
2023/10/02 11:51:34;;;;;;;16.33;9.18;;;25.70;99.90;;;;;;4994030;28;20245;-64
2023/10/02 11:54:05;;;;;;;17.73;9.05;;;25.80;99.90;;;;;;4993981;28;20660;-63
2023/10/02 11:56:34;;;;;;;17.15;9.30;;;25.70;99.90;;;;;;4993771;28;20160;-63
2023/10/02 11:59:00;;;;;;;18.25;9.20;;;25.80;99.90;;;;;;4994275;28;20192;-64
2023/10/02 12:01:26;;;;;;;16.50;8.75;;;25.70;99.90;;;;;;4993808;28;20737;-64
2023/10/02 12:03:59;;;;;;;15.02;8.48;;;25.90;99.90;;;;;;4993886;28;20545;-64
2023/10/02 12:06:27;;;;;;;16.98;9.68;;;26.00;99.90;;;;;;4993898;28;20149;-64
2023/10/02 12:09:01;;;;;;;14.50;7.97;;;26.00;99.90;;;;;;4993755;28;20188;-64
2023/10/02 12:11:28;;;;;;;19.08;9.05;;;26.10;99.90;;;;;;4993555;28;20673;-64
2023/10/02 12:13:55;;;;;;;18.00;9.52;;;26.20;99.90;;;;;;4993749;28;20184;-64
2023/10/02 12:16:24;;;;;;;16.75;8.80;;;26.30;99.90;;;;;;4991671;28;20180;-64
2023/10/02 12:18:51;;;;;;;18.73;9.07;;;26.60;99.90;;;;;;4974289;28;20204;-64
2023/10/02 12:21:19;;;;;;;15.43;8.80;;;26.50;99.90;;;;;;4956941;28;20211;-64
2023/10/02 12:23:46;;;;;;;15.77;9.25;;;26.50;99.90;;;;;;4974268;28;20176;-64
2023/10/02 12:26:24;;;;;;;17.88;9.75;;;26.60;99.90;;;;;;4973977;28;20661;-63
2023/10/02 12:28:50;;;;;;;16.48;8.40;;;26.60;99.90;;;;;;4974497;28;20165;-64
2023/10/02 12:31:19;;;;;;;16.05;8.68;;;26.80;99.90;;;;;;4972763;28;20220;-64
2023/10/02 12:33:48;;;;;;;15.70;8.00;;;26.80;99.90;;;;;;4956773;28;20177;-63
2023/10/02 12:36:17;;;;;;;14.50;7.50;;;26.70;99.90;;;;;;4974163;28;20204;-63
2023/10/02 12:38:45;;;;;;;16.08;8.00;;;26.50;99.90;;;;;;4976709;28;20183;-64
2023/10/02 12:41:31;;;;;;;16.10;8.75;;;26.30;99.90;;;;;;4977994;28;20199;-64
2023/10/02 12:43:58;;;;;;;15.73;8.68;;;26.20;99.90;;;;;;4960506;28;20285;-64
2023/10/02 12:46:28;;;;;;;14.35;8.07;;;26.10;99.90;;;;;;4977691;28;20256;-64
2023/10/02 12:48:57;;;;;;;15.38;8.60;;;26.00;99.90;;;;;;4978300;28;20225;-64
2023/10/02 12:51:24;;;;;;;18.38;8.52;;;26.20;99.90;;;;;;4977721;28;20201;-64
2023/10/02 12:53:50;;;;;;;15.27;8.70;;;26.40;99.90;;;;;;4977901;28;20639;-64
2023/10/02 12:56:20;;;;;;;15.50;8.57;;;26.50;99.90;;;;;;4977158;28;20235;-64
2023/10/02 12:58:50;;;;;;;15.15;8.68;;;26.70;99.90;;;;;;4977427;28;20284;-63
2023/10/02 13:01:33;;;;;;;16.10;9.13;;;26.60;99.90;;;;;;4977408;28;20198;-64
2023/10/02 13:03:59;;;;;;;16.73;8.73;;;26.60;99.90;;;;;;4960037;28;20169;-63
2023/10/02 13:06:27;;;;;;;16.30;8.32;;;26.60;99.90;;;;;;4977434;28;20638;-64
2023/10/02 13:09:15;;;;;;;15.32;8.27;;;26.60;99.90;;;;;;4977926;28;20181;-64
2023/10/02 13:11:44;;;;;;;14.05;7.35;;;26.60;99.90;;;;;;4976533;28;20287;-64
2023/10/02 13:14:12;;;;;;;15.82;8.18;;;26.70;99.90;;;;;;4977196;28;20177;-64
2023/10/02 13:16:44;;;;;;;16.48;8.48;;;27.00;99.90;;;;;;4977084;28;20181;-64
2023/10/02 13:19:11;;;;;;;17.33;8.48;;;27.00;99.90;;;;;;4977326;28;20193;-64
2023/10/02 13:21:38;;;;;;;15.57;7.90;;;26.90;99.90;;;;;;4977026;28;20189;-64
2023/10/02 13:24:13;;;;;;;14.73;8.95;;;26.70;99.90;;;;;;4959842;28;20177;-64
2023/10/02 13:26:39;;;;;;;14.15;8.40;;;26.30;99.90;;;;;;4959456;28;20188;-64
2023/10/02 13:29:05;;;;;;;14.20;7.95;;;26.10;99.90;;;;;;4976996;28;20519;-64
2023/10/02 13:31:33;;;;;;;15.95;7.95;;;26.00;99.90;;;;;;4977129;28;20239;-64
2023/10/02 13:34:05;;;;;;;15.75;7.82;;;26.00;99.90;;;;;;4977447;28;20628;-64
2023/10/02 13:36:33;;;;;;;16.40;7.50;;;25.80;99.90;;;;;;4977487;28;20153;-63
2023/10/02 13:38:59;;;;;;;12.90;7.20;;;25.70;99.90;;;;;;4976630;28;20645;-62
2023/10/02 13:41:27;;;;;;;12.05;6.95;;;25.70;99.90;;;;;;4976623;28;20204;-62
2023/10/02 13:43:59;;;;;;;14.55;7.28;;;25.60;99.90;;;;;;4977262;28;20649;-62
2023/10/02 13:46:25;;;;;;;13.27;7.25;;;25.60;99.90;;;;;;4976753;28;20161;-62
2023/10/02 13:48:52;;;;;;;12.90;6.75;;;25.70;99.90;;;;;;4958778;28;20244;-62